sensor_id;sensor_type;location;lat;lon;timestamp;pressure;altitude;pressure_sealevel;temperature;humidity
65614;BME280;52283;49.292;10.572;2024-03-08T00:02:11;96571.75;;;0.40;100.00
65614;BME280;52283;49.292;10.572;2024-03-08T00:04:38;96560.16;;;0.49;100.00
65614;BME280;52283;49.292;10.572;2024-03-08T00:07:04;96564.38;;;0.37;100.00
65614;BME280;52283;49.292;10.572;2024-03-08T00:09:32;96559.47;;;0.45;100.00
65614;BME280;52283;49.292;10.572;2024-03-08T00:12:01;96552.75;;;0.75;100.00
65614;BME280;52283;49.292;10.572;2024-03-08T00:14:27;96543.28;;;0.76;100.00
65614;BME280;52283;49.292;10.572;2024-03-08T00:16:54;96540.09;;;0.77;100.00
65614;BME280;52283;49.292;10.572;2024-03-08T00:19:20;96544.44;;;0.62;100.00
65614;BME280;52283;49.292;10.572;2024-03-08T00:21:47;96538.44;;;0.80;100.00
65614;BME280;52283;49.292;10.572;2024-03-08T00:24:13;96545.38;;;0.72;100.00
65614;BME280;52283;49.292;10.572;2024-03-08T00:26:40;96543.00;;;0.86;100.00
65614;BME280;52283;49.292;10.572;2024-03-08T00:29:08;96539.97;;;0.81;100.00
65614;BME280;52283;49.292;10.572;2024-03-08T00:31:34;96533.59;;;0.71;100.00
65614;BME280;52283;49.292;10.572;2024-03-08T00:34:01;96541.31;;;0.76;100.00
65614;BME280;52283;49.292;10.572;2024-03-08T00:36:27;96533.63;;;0.84;100.00
65614;BME280;52283;49.292;10.572;2024-03-08T00:38:55;96527.72;;;0.56;100.00
65614;BME280;52283;49.292;10.572;2024-03-08T00:41:21;96527.88;;;0.37;100.00
65614;BME280;52283;49.292;10.572;2024-03-08T00:43:48;96529.34;;;0.54;100.00
65614;BME280;52283;49.292;10.572;2024-03-08T00:46:15;96524.78;;;0.64;100.00
65614;BME280;52283;49.292;10.572;2024-03-08T00:48:42;96524.25;;;0.69;100.00
65614;BME280;52283;49.292;10.572;2024-03-08T00:51:09;96522.44;;;0.62;100.00
65614;BME280;52283;49.292;10.572;2024-03-08T00:53:36;96527.75;;;0.40;100.00
65614;BME280;52283;49.292;10.572;2024-03-08T00:56:03;96524.19;;;0.56;100.00
65614;BME280;52283;49.292;10.572;2024-03-08T00:58:30;96521.41;;;0.43;100.00
65614;BME280;52283;49.292;10.572;2024-03-08T01:00:56;96518.03;;;0.23;100.00
65614;BME280;52283;49.292;10.572;2024-03-08T01:03:26;96518.84;;;0.36;100.00
65614;BME280;52283;49.292;10.572;2024-03-08T01:05:52;96518.41;;;0.38;100.00
65614;BME280;52283;49.292;10.572;2024-03-08T01:08:19;96517.03;;;0.46;100.00
65614;BME280;52283;49.292;10.572;2024-03-08T01:10:45;96506.63;;;0.66;100.00
65614;BME280;52283;49.292;10.572;2024-03-08T01:13:12;96503.66;;;0.73;100.00
65614;BME280;52283;49.292;10.572;2024-03-08T01:15:38;96503.19;;;0.49;100.00
65614;BME280;52283;49.292;10.572;2024-03-08T01:18:06;96509.66;;;0.43;100.00
65614;BME280;52283;49.292;10.572;2024-03-08T01:20:34;96503.50;;;0.51;100.00
65614;BME280;52283;49.292;10.572;2024-03-08T01:23:01;96497.28;;;0.64;100.00
65614;BME280;52283;49.292;10.572;2024-03-08T01:25:27;96493.09;;;0.72;100.00
65614;BME280;52283;49.292;10.572;2024-03-08T01:27:54;96493.22;;;0.39;100.00
65614;BME280;52283;49.292;10.572;2024-03-08T01:30:20;96489.09;;;0.47;100.00
65614;BME280;52283;49.292;10.572;2024-03-08T01:32:46;96491.66;;;0.25;100.00
65614;BME280;52283;49.292;10.572;2024-03-08T01:35:14;96481.03;;;0.40;100.00
65614;BME280;52283;49.292;10.572;2024-03-08T01:37:41;96480.78;;;0.64;100.00
65614;BME280;52283;49.292;10.572;2024-03-08T01:40:08;96480.41;;;0.49;100.00
65614;BME280;52283;49.292;10.572;2024-03-08T01:42:35;96482.84;;;0.59;100.00
65614;BME280;52283;49.292;10.572;2024-03-08T01:45:04;96470.78;;;0.70;100.00
65614;BME280;52283;49.292;10.572;2024-03-08T01:47:31;96462.31;;;0.35;100.00
65614;BME280;52283;49.292;10.572;2024-03-08T01:49:58;96457.25;;;0.34;100.00
65614;BME280;52283;49.292;10.572;2024-03-08T01:52:25;96459.72;;;0.44;100.00
65614;BME280;52283;49.292;10.572;2024-03-08T01:54:53;96459.47;;;0.39;100.00
65614;BME280;52283;49.292;10.572;2024-03-08T01:57:20;96449.22;;;0.68;100.00
65614;BME280;52283;49.292;10.572;2024-03-08T01:59:46;96445.09;;;0.47;100.00
65614;BME280;52283;49.292;10.572;2024-03-08T02:02:14;96451.22;;;0.26;100.00
65614;BME280;52283;49.292;10.572;2024-03-08T02:04:44;96448.47;;;0.26;100.00
65614;BME280;52283;49.292;10.572;2024-03-08T02:07:10;96440.44;;;0.32;100.00
65614;BME280;52283;49.292;10.572;2024-03-08T02:09:37;96442.97;;;0.39;100.00
65614;BME280;52283;49.292;10.572;2024-03-08T02:12:06;96439.47;;;0.38;100.00
65614;BME280;52283;49.292;10.572;2024-03-08T02:14:34;96436.28;;;0.40;100.00
65614;BME280;52283;49.292;10.572;2024-03-08T02:17:01;96425.84;;;0.47;100.00
65614;BME280;52283;49.292;10.572;2024-03-08T02:19:28;96429.56;;;0.41;100.00
65614;BME280;52283;49.292;10.572;2024-03-08T02:21:56;96421.25;;;0.57;100.00
65614;BME280;52283;49.292;10.572;2024-03-08T02:24:23;96421.34;;;0.53;100.00
65614;BME280;52283;49.292;10.572;2024-03-08T02:26:50;96424.22;;;0.08;100.00
65614;BME280;52283;49.292;10.572;2024-03-08T02:29:19;96427.59;;;0.41;100.00
65614;BME280;52283;49.292;10.572;2024-03-08T02:31:46;96417.38;;;0.54;100.00
65614;BME280;52283;49.292;10.572;2024-03-08T02:34:12;96428.13;;;0.23;100.00
65614;BME280;52283;49.292;10.572;2024-03-08T02:36:39;96425.53;;;0.04;100.00
65614;BME280;52283;49.292;10.572;2024-03-08T02:39:08;96418.50;;;0.15;100.00
65614;BME280;52283;49.292;10.572;2024-03-08T02:41:35;96413.59;;;0.23;100.00
65614;BME280;52283;49.292;10.572;2024-03-08T02:44:02;96413.16;;;0.24;100.00
65614;BME280;52283;49.292;10.572;2024-03-08T02:46:29;96418.53;;;-0.14;100.00
65614;BME280;52283;49.292;10.572;2024-03-08T02:48:55;96422.19;;;-0.33;100.00
65614;BME280;52283;49.292;10.572;2024-03-08T02:51:22;96410.69;;;0.01;100.00
65614;BME280;52283;49.292;10.572;2024-03-08T02:53:51;96399.50;;;0.08;100.00
65614;BME280;52283;49.292;10.572;2024-03-08T02:56:19;96398.72;;;-0.21;100.00
65614;BME280;52283;49.292;10.572;2024-03-08T02:58:47;96399.28;;;0.15;100.00
65614;BME280;52283;49.292;10.572;2024-03-08T03:01:14;96393.69;;;0.19;100.00
65614;BME280;52283;49.292;10.572;2024-03-08T03:03:40;96388.31;;;0.28;100.00
65614;BME280;52283;49.292;10.572;2024-03-08T03:06:07;96401.06;;;0.22;100.00
65614;BME280;52283;49.292;10.572;2024-03-08T03:08:33;96397.00;;;0.26;100.00
65614;BME280;52283;49.292;10.572;2024-03-08T03:11:00;96389.19;;;0.25;100.00
65614;BME280;52283;49.292;10.572;2024-03-08T03:13:27;96386.41;;;0.12;100.00
65614;BME280;52283;49.292;10.572;2024-03-08T03:15:55;96383.03;;;0.21;100.00
65614;BME280;52283;49.292;10.572;2024-03-08T03:18:23;96383.47;;;0.19;100.00
65614;BME280;52283;49.292;10.572;2024-03-08T03:20:51;96376.75;;;0.08;100.00
65614;BME280;52283;49.292;10.572;2024-03-08T03:23:17;96376.22;;;0.25;100.00
65614;BME280;52283;49.292;10.572;2024-03-08T03:25:45;96378.53;;;-0.15;100.00
65614;BME280;52283;49.292;10.572;2024-03-08T03:28:12;96375.97;;;0.20;100.00
65614;BME280;52283;49.292;10.572;2024-03-08T03:30:41;96366.84;;;0.10;100.00
65614;BME280;52283;49.292;10.572;2024-03-08T03:33:07;96366.84;;;0.10;100.00
65614;BME280;52283;49.292;10.572;2024-03-08T03:35:34;96362.56;;;-0.33;100.00
65614;BME280;52283;49.292;10.572;2024-03-08T03:38:01;96363.28;;;-0.03;100.00
65614;BME280;52283;49.292;10.572;2024-03-08T03:40:32;96370.63;;;-0.13;100.00
65614;BME280;52283;49.292;10.572;2024-03-08T03:42:58;96351.88;;;-0.02;100.00
65614;BME280;52283;49.292;10.572;2024-03-08T03:45:25;96352.72;;;-0.17;100.00
65614;BME280;52283;49.292;10.572;2024-03-08T03:47:53;96351.41;;;-0.13;100.00
65614;BME280;52283;49.292;10.572;2024-03-08T03:50:20;96350.31;;;-0.15;100.00
65614;BME280;52283;49.292;10.572;2024-03-08T03:52:47;96349.97;;;-0.46;100.00
65614;BME280;52283;49.292;10.572;2024-03-08T03:55:14;96355.22;;;-0.23;100.00
65614;BME280;52283;49.292;10.572;2024-03-08T03:57:41;96344.69;;;-0.53;100.00
65614;BME280;52283;49.292;10.572;2024-03-08T04:00:09;96339.88;;;-0.20;100.00
65614;BME280;52283;49.292;10.572;2024-03-08T04:02:37;96333.75;;;0.01;100.00
65614;BME280;52283;49.292;10.572;2024-03-08T04:05:06;96335.75;;;-0.28;100.00
65614;BME280;52283;49.292;10.572;2024-03-08T04:07:33;96328.09;;;-0.21;100.00
65614;BME280;52283;49.292;10.572;2024-03-08T04:09:59;96328.78;;;-0.17;100.00
65614;BME280;52283;49.292;10.572;2024-03-08T04:12:26;96335.97;;;-0.36;100.00
65614;BME280;52283;49.292;10.572;2024-03-08T04:14:54;96328.19;;;-0.24;100.00
65614;BME280;52283;49.292;10.572;2024-03-08T04:17:20;96317.09;;;-0.21;100.00
65614;BME280;52283;49.292;10.572;2024-03-08T04:19:47;96328.00;;;-0.46;100.00
65614;BME280;52283;49.292;10.572;2024-03-08T04:22:15;96326.03;;;-0.46;100.00
65614;BME280;52283;49.292;10.572;2024-03-08T04:24:43;96318.91;;;-0.43;100.00
65614;BME280;52283;49.292;10.572;2024-03-08T04:27:09;96318.41;;;-0.25;100.00
65614;BME280;52283;49.292;10.572;2024-03-08T04:29:36;96316.16;;;-0.43;100.00
65614;BME280;52283;49.292;10.572;2024-03-08T04:32:03;96322.38;;;-0.26;100.00
65614;BME280;52283;49.292;10.572;2024-03-08T04:34:30;96322.91;;;-0.32;100.00
65614;BME280;52283;49.292;10.572;2024-03-08T04:36:57;96311.53;;;-0.46;100.00
65614;BME280;52283;49.292;10.572;2024-03-08T04:39:25;96317.19;;;-0.24;100.00
65614;BME280;52283;49.292;10.572;2024-03-08T04:41:53;96313.19;;;-0.07;100.00
65614;BME280;52283;49.292;10.572;2024-03-08T04:44:21;96308.56;;;-0.10;100.00
65614;BME280;52283;49.292;10.572;2024-03-08T04:46:49;96307.78;;;-0.11;100.00
65614;BME280;52283;49.292;10.572;2024-03-08T04:49:16;96303.28;;;-0.17;100.00
65614;BME280;52283;49.292;10.572;2024-03-08T04:51:43;96305.75;;;-0.36;100.00
65614;BME280;52283;49.292;10.572;2024-03-08T04:54:10;96305.22;;;-0.31;100.00
65614;BME280;52283;49.292;10.572;2024-03-08T04:56:38;96310.16;;;-0.25;100.00
65614;BME280;52283;49.292;10.572;2024-03-08T04:59:05;96310.25;;;0.00;100.00
65614;BME280;52283;49.292;10.572;2024-03-08T05:01:33;96305.53;;;0.13;100.00
65614;BME280;52283;49.292;10.572;2024-03-08T05:04:03;96310.38;;;0.22;100.00
65614;BME280;52283;49.292;10.572;2024-03-08T05:06:29;96302.22;;;0.06;100.00
65614;BME280;52283;49.292;10.572;2024-03-08T05:08:56;96315.72;;;-0.13;100.00
65614;BME280;52283;49.292;10.572;2024-03-08T05:11:22;96310.75;;;-0.18;100.00
65614;BME280;52283;49.292;10.572;2024-03-08T05:13:50;96309.66;;;-0.20;100.00
65614;BME280;52283;49.292;10.572;2024-03-08T05:16:16;96318.91;;;-0.02;100.00
65614;BME280;52283;49.292;10.572;2024-03-08T05:18:43;96312.00;;;0.07;100.00
65614;BME280;52283;49.292;10.572;2024-03-08T05:21:12;96310.81;;;0.08;100.00
65614;BME280;52283;49.292;10.572;2024-03-08T05:23:38;96318.69;;;-0.07;100.00
65614;BME280;52283;49.292;10.572;2024-03-08T05:26:05;96306.19;;;0.05;100.00
65614;BME280;52283;49.292;10.572;2024-03-08T05:28:31;96309.28;;;-0.35;100.00
65614;BME280;52283;49.292;10.572;2024-03-08T05:30:59;96304.78;;;-0.29;100.00
65614;BME280;52283;49.292;10.572;2024-03-08T05:33:26;96300.75;;;-0.12;100.00
65614;BME280;52283;49.292;10.572;2024-03-08T05:35:53;96301.13;;;0.03;100.00
65614;BME280;52283;49.292;10.572;2024-03-08T05:38:19;96303.25;;;0.24;100.00
65614;BME280;52283;49.292;10.572;2024-03-08T05:40:46;96296.34;;;-0.22;100.00
65614;BME280;52283;49.292;10.572;2024-03-08T05:43:13;96297.66;;;-0.26;100.00
65614;BME280;52283;49.292;10.572;2024-03-08T05:45:42;96290.34;;;0.09;100.00
65614;BME280;52283;49.292;10.572;2024-03-08T05:48:10;96296.38;;;-0.09;100.00
65614;BME280;52283;49.292;10.572;2024-03-08T05:50:37;96294.31;;;0.08;100.00
65614;BME280;52283;49.292;10.572;2024-03-08T05:53:04;96287.44;;;-0.26;100.00
65614;BME280;52283;49.292;10.572;2024-03-08T05:55:31;96287.25;;;-0.06;100.00
65614;BME280;52283;49.292;10.572;2024-03-08T05:58:00;96290.16;;;-0.39;100.00
65614;BME280;52283;49.292;10.572;2024-03-08T06:00:26;96293.28;;;-0.11;100.00
65614;BME280;52283;49.292;10.572;2024-03-08T06:02:53;96290.66;;;-0.02;100.00
65614;BME280;52283;49.292;10.572;2024-03-08T06:05:22;96293.94;;;-0.20;100.00
65614;BME280;52283;49.292;10.572;2024-03-08T06:07:50;96292.19;;;-0.01;100.00
65614;BME280;52283;49.292;10.572;2024-03-08T06:10:18;96287.59;;;-0.04;100.00
65614;BME280;52283;49.292;10.572;2024-03-08T06:12:45;96283.63;;;-0.03;100.00
65614;BME280;52283;49.292;10.572;2024-03-08T06:15:11;96293.25;;;-0.24;100.00
65614;BME280;52283;49.292;10.572;2024-03-08T06:17:39;96285.28;;;0.20;100.00
65614;BME280;52283;49.292;10.572;2024-03-08T06:20:07;96286.94;;;-0.08;100.00
65614;BME280;52283;49.292;10.572;2024-03-08T06:22:39;96289.25;;;0.06;100.00
65614;BME280;52283;49.292;10.572;2024-03-08T06:25:07;96283.25;;;-0.31;100.00
65614;BME280;52283;49.292;10.572;2024-03-08T06:27:34;96282.28;;;-0.24;100.00
65614;BME280;52283;49.292;10.572;2024-03-08T06:30:00;96285.72;;;-0.20;100.00
65614;BME280;52283;49.292;10.572;2024-03-08T06:32:27;96279.25;;;0.12;100.00
65614;BME280;52283;49.292;10.572;2024-03-08T06:34:53;96270.47;;;0.05;100.00
65614;BME280;52283;49.292;10.572;2024-03-08T06:37:20;96275.13;;;-0.21;100.00
65614;BME280;52283;49.292;10.572;2024-03-08T06:39:50;96283.63;;;-0.16;100.00
65614;BME280;52283;49.292;10.572;2024-03-08T06:42:17;96278.03;;;-0.12;100.00
65614;BME280;52283;49.292;10.572;2024-03-08T06:44:43;96269.56;;;-0.18;100.00
65614;BME280;52283;49.292;10.572;2024-03-08T06:47:14;96264.97;;;0.05;100.00
65614;BME280;52283;49.292;10.572;2024-03-08T06:49:41;96271.00;;;-0.13;100.00
65614;BME280;52283;49.292;10.572;2024-03-08T06:52:08;96273.09;;;-0.05;100.00
65614;BME280;52283;49.292;10.572;2024-03-08T06:54:34;96270.53;;;-0.24;100.00
65614;BME280;52283;49.292;10.572;2024-03-08T06:57:02;96271.22;;;-0.08;100.00
65614;BME280;52283;49.292;10.572;2024-03-08T06:59:30;96271.47;;;0.23;100.00
65614;BME280;52283;49.292;10.572;2024-03-08T07:01:56;96263.19;;;-0.02;100.00
65614;BME280;52283;49.292;10.572;2024-03-08T07:04:24;96266.94;;;0.17;100.00
65614;BME280;52283;49.292;10.572;2024-03-08T07:06:54;96275.84;;;0.08;100.00
65614;BME280;52283;49.292;10.572;2024-03-08T07:09:20;96266.28;;;0.51;100.00
65614;BME280;52283;49.292;10.572;2024-03-08T07:11:47;96269.78;;;0.51;100.00
65614;BME280;52283;49.292;10.572;2024-03-08T07:14:21;96259.97;;;0.76;100.00
65614;BME280;52283;49.292;10.572;2024-03-08T07:16:48;96266.59;;;0.53;100.00
65614;BME280;52283;49.292;10.572;2024-03-08T07:19:14;96253.81;;;0.72;100.00
65614;BME280;52283;49.292;10.572;2024-03-08T07:21:42;96259.56;;;0.52;100.00
65614;BME280;52283;49.292;10.572;2024-03-08T07:24:08;96254.28;;;1.05;100.00
65614;BME280;52283;49.292;10.572;2024-03-08T07:26:52;96249.72;;;0.89;100.00
65614;BME280;52283;49.292;10.572;2024-03-08T07:29:22;96249.66;;;1.02;100.00
65614;BME280;52283;49.292;10.572;2024-03-08T07:31:48;96243.50;;;1.32;100.00
65614;BME280;52283;49.292;10.572;2024-03-08T07:34:23;96241.34;;;0.80;100.00
65614;BME280;52283;49.292;10.572;2024-03-08T07:36:49;96248.16;;;1.22;100.00
65614;BME280;52283;49.292;10.572;2024-03-08T07:39:16;96236.50;;;1.40;100.00
65614;BME280;52283;49.292;10.572;2024-03-08T07:41:44;96243.03;;;1.12;100.00
65614;BME280;52283;49.292;10.572;2024-03-08T07:44:10;96251.34;;;1.43;100.00
65614;BME280;52283;49.292;10.572;2024-03-08T07:46:40;96246.06;;;1.70;100.00
65614;BME280;52283;49.292;10.572;2024-03-08T07:49:07;96249.38;;;1.21;100.00
65614;BME280;52283;49.292;10.572;2024-03-08T07:51:36;96242.72;;;1.75;100.00
65614;BME280;52283;49.292;10.572;2024-03-08T07:54:02;96241.88;;;1.66;100.00
65614;BME280;52283;49.292;10.572;2024-03-08T07:56:29;96236.50;;;1.18;100.00
65614;BME280;52283;49.292;10.572;2024-03-08T07:58:56;96236.75;;;1.77;100.00
65614;BME280;52283;49.292;10.572;2024-03-08T08:01:22;96222.13;;;1.89;100.00
65614;BME280;52283;49.292;10.572;2024-03-08T08:03:50;96219.81;;;2.19;100.00
65614;BME280;52283;49.292;10.572;2024-03-08T08:06:17;96222.72;;;2.83;100.00
65614;BME280;52283;49.292;10.572;2024-03-08T08:08:45;96218.81;;;2.03;100.00
65614;BME280;52283;49.292;10.572;2024-03-08T08:11:11;96211.56;;;2.95;100.00
65614;BME280;52283;49.292;10.572;2024-03-08T08:13:38;96213.69;;;2.91;100.00
65614;BME280;52283;49.292;10.572;2024-03-08T08:16:04;96198.22;;;3.21;100.00
65614;BME280;52283;49.292;10.572;2024-03-08T08:18:32;96198.53;;;3.14;100.00
65614;BME280;52283;49.292;10.572;2024-03-08T08:21:01;96204.19;;;3.20;100.00
65614;BME280;52283;49.292;10.572;2024-03-08T08:23:28;96188.09;;;3.09;100.00
65614;BME280;52283;49.292;10.572;2024-03-08T08:25:55;96192.44;;;2.33;100.00
65614;BME280;52283;49.292;10.572;2024-03-08T08:28:21;96190.38;;;3.38;100.00
65614;BME280;52283;49.292;10.572;2024-03-08T08:30:48;96177.50;;;3.17;100.00
65614;BME280;52283;49.292;10.572;2024-03-08T08:33:14;96176.88;;;3.22;100.00
65614;BME280;52283;49.292;10.572;2024-03-08T08:35:41;96172.69;;;3.54;100.00
65614;BME280;52283;49.292;10.572;2024-03-08T08:38:09;96175.19;;;3.24;100.00
65614;BME280;52283;49.292;10.572;2024-03-08T08:40:36;96167.19;;;3.45;100.00
65614;BME280;52283;49.292;10.572;2024-03-08T08:43:03;96156.28;;;4.02;100.00
65614;BME280;52283;49.292;10.572;2024-03-08T08:45:30;96158.22;;;3.68;100.00
65614;BME280;52283;49.292;10.572;2024-03-08T08:47:57;96154.84;;;3.73;100.00
65614;BME280;52283;49.292;10.572;2024-03-08T08:50:25;96163.78;;;3.59;100.00
65614;BME280;52283;49.292;10.572;2024-03-08T08:52:53;96151.72;;;3.38;100.00
65614;BME280;52283;49.292;10.572;2024-03-08T08:55:21;96144.41;;;3.68;100.00
65614;BME280;52283;49.292;10.572;2024-03-08T08:57:50;96144.88;;;3.66;100.00
65614;BME280;52283;49.292;10.572;2024-03-08T09:00:18;96131.31;;;4.44;100.00
65614;BME280;52283;49.292;10.572;2024-03-08T09:02:45;96130.13;;;4.36;100.00
65614;BME280;52283;49.292;10.572;2024-03-08T09:05:12;96127.13;;;4.48;100.00
65614;BME280;52283;49.292;10.572;2024-03-08T09:07:42;96129.78;;;4.67;100.00
65614;BME280;52283;49.292;10.572;2024-03-08T09:10:09;96113.97;;;5.50;100.00
65614;BME280;52283;49.292;10.572;2024-03-08T09:12:38;96114.81;;;5.27;100.00
65614;BME280;52283;49.292;10.572;2024-03-08T09:15:06;96109.09;;;4.77;100.00
65614;BME280;52283;49.292;10.572;2024-03-08T09:17:36;96112.19;;;4.55;100.00
65614;BME280;52283;49.292;10.572;2024-03-08T09:20:05;96099.72;;;5.28;100.00
65614;BME280;52283;49.292;10.572;2024-03-08T09:22:32;96090.56;;;5.22;100.00
65614;BME280;52283;49.292;10.572;2024-03-08T09:24:58;96082.91;;;5.31;100.00
65614;BME280;52283;49.292;10.572;2024-03-08T09:27:25;96087.88;;;5.57;100.00
65614;BME280;52283;49.292;10.572;2024-03-08T09:29:53;96068.53;;;5.77;98.95
65614;BME280;52283;49.292;10.572;2024-03-08T09:32:20;96064.09;;;6.76;96.69
65614;BME280;52283;49.292;10.572;2024-03-08T09:34:47;96071.13;;;6.51;95.63
65614;BME280;52283;49.292;10.572;2024-03-08T09:37:15;96068.34;;;6.30;95.47
65614;BME280;52283;49.292;10.572;2024-03-08T09:39:42;96065.91;;;6.58;94.23
65614;BME280;52283;49.292;10.572;2024-03-08T09:42:09;96067.09;;;5.81;96.75
65614;BME280;52283;49.292;10.572;2024-03-08T09:44:43;96064.22;;;6.05;96.46
65614;BME280;52283;49.292;10.572;2024-03-08T09:47:11;96067.16;;;6.02;98.21
65614;BME280;52283;49.292;10.572;2024-03-08T09:49:39;96048.66;;;7.21;92.36
65614;BME280;52283;49.292;10.572;2024-03-08T09:52:06;96032.91;;;7.12;90.01
65614;BME280;52283;49.292;10.572;2024-03-08T09:54:34;96045.38;;;6.30;92.30
65614;BME280;52283;49.292;10.572;2024-03-08T09:57:00;96038.25;;;6.90;94.11
65614;BME280;52283;49.292;10.572;2024-03-08T09:59:29;96011.81;;;7.57;86.85
65614;BME280;52283;49.292;10.572;2024-03-08T10:02:14;96019.59;;;6.70;87.33
65614;BME280;52283;49.292;10.572;2024-03-08T10:04:42;96022.84;;;7.15;88.17
65614;BME280;52283;49.292;10.572;2024-03-08T10:07:10;96019.28;;;7.14;86.45
65614;BME280;52283;49.292;10.572;2024-03-08T10:09:37;96022.75;;;6.83;88.58
65614;BME280;52283;49.292;10.572;2024-03-08T10:12:05;96013.38;;;7.64;87.14
65614;BME280;52283;49.292;10.572;2024-03-08T10:14:31;96005.13;;;7.44;80.87
65614;BME280;52283;49.292;10.572;2024-03-08T10:16:58;96006.44;;;7.17;82.89
65614;BME280;52283;49.292;10.572;2024-03-08T10:19:26;96005.34;;;7.40;83.48
65614;BME280;52283;49.292;10.572;2024-03-08T10:21:55;95996.06;;;7.86;83.47
65614;BME280;52283;49.292;10.572;2024-03-08T10:24:24;95981.78;;;7.67;83.16
65614;BME280;52283;49.292;10.572;2024-03-08T10:26:52;95994.25;;;7.40;82.76
65614;BME280;52283;49.292;10.572;2024-03-08T10:29:18;95985.94;;;7.46;84.10
65614;BME280;52283;49.292;10.572;2024-03-08T10:31:45;95986.03;;;8.00;81.63
65614;BME280;52283;49.292;10.572;2024-03-08T10:34:12;95975.31;;;7.44;80.71
65614;BME280;52283;49.292;10.572;2024-03-08T10:36:40;95980.03;;;7.70;81.18
65614;BME280;52283;49.292;10.572;2024-03-08T10:39:21;95980.97;;;7.98;81.22
65614;BME280;52283;49.292;10.572;2024-03-08T10:41:52;95973.19;;;7.65;78.95
65614;BME280;52283;49.292;10.572;2024-03-08T10:44:36;95985.06;;;7.65;80.16
65614;BME280;52283;49.292;10.572;2024-03-08T10:47:15;95979.31;;;8.17;79.05
65614;BME280;52283;49.292;10.572;2024-03-08T10:49:51;95980.13;;;7.81;79.41
65614;BME280;52283;49.292;10.572;2024-03-08T10:52:20;95978.59;;;8.28;76.93
65614;BME280;52283;49.292;10.572;2024-03-08T10:54:48;95969.13;;;8.03;75.62
65614;BME280;52283;49.292;10.572;2024-03-08T10:57:17;95959.56;;;8.15;74.25
65614;BME280;52283;49.292;10.572;2024-03-08T10:59:45;95974.19;;;8.05;77.28
65614;BME280;52283;49.292;10.572;2024-03-08T11:02:12;95961.34;;;8.18;74.17
65614;BME280;52283;49.292;10.572;2024-03-08T11:04:39;95961.75;;;7.94;76.33
65614;BME280;52283;49.292;10.572;2024-03-08T11:07:06;95959.72;;;8.49;74.68
65614;BME280;52283;49.292;10.572;2024-03-08T11:09:35;95962.47;;;8.43;73.08
65614;BME280;52283;49.292;10.572;2024-03-08T11:12:22;95948.38;;;8.69;71.70
65614;BME280;52283;49.292;10.572;2024-03-08T11:14:52;95945.41;;;9.29;70.26
65614;BME280;52283;49.292;10.572;2024-03-08T11:17:27;95926.84;;;8.64;69.11
65614;BME280;52283;49.292;10.572;2024-03-08T11:20:09;95935.78;;;8.14;72.72
65614;BME280;52283;49.292;10.572;2024-03-08T11:22:41;95919.53;;;9.11;67.41
65614;BME280;52283;49.292;10.572;2024-03-08T11:25:31;95920.78;;;8.88;70.31
65614;BME280;52283;49.292;10.572;2024-03-08T11:28:07;95908.63;;;9.41;66.52
65614;BME280;52283;49.292;10.572;2024-03-08T11:30:34;95899.38;;;9.91;63.31
65614;BME280;52283;49.292;10.572;2024-03-08T11:33:01;95899.50;;;8.74;63.86
65614;BME280;52283;49.292;10.572;2024-03-08T11:35:28;95883.81;;;8.88;64.70
65614;BME280;52283;49.292;10.572;2024-03-08T11:37:57;95911.59;;;8.48;70.05
65614;BME280;52283;49.292;10.572;2024-03-08T11:40:26;95898.00;;;9.29;68.40
65614;BME280;52283;49.292;10.572;2024-03-08T11:42:53;95895.09;;;9.85;66.98
65614;BME280;52283;49.292;10.572;2024-03-08T11:45:20;95889.59;;;9.51;66.46
65614;BME280;52283;49.292;10.572;2024-03-08T11:47:47;95864.81;;;8.64;63.93
65614;BME280;52283;49.292;10.572;2024-03-08T11:50:14;95863.19;;;9.69;61.25
65614;BME280;52283;49.292;10.572;2024-03-08T11:52:41;95868.56;;;9.50;59.78
65614;BME280;52283;49.292;10.572;2024-03-08T11:55:08;95861.56;;;9.96;60.77
65614;BME280;52283;49.292;10.572;2024-03-08T11:57:36;95866.22;;;9.71;61.74
65614;BME280;52283;49.292;10.572;2024-03-08T12:00:04;95861.72;;;10.15;58.04
65614;BME280;52283;49.292;10.572;2024-03-08T12:02:32;95848.47;;;10.32;58.07
65614;BME280;52283;49.292;10.572;2024-03-08T12:05:04;95843.44;;;10.19;57.16
65614;BME280;52283;49.292;10.572;2024-03-08T12:07:34;95839.66;;;10.11;57.14
65614;BME280;52283;49.292;10.572;2024-03-08T12:10:17;95846.31;;;10.02;57.82
65614;BME280;52283;49.292;10.572;2024-03-08T12:12:47;95833.31;;;10.63;57.67
65614;BME280;52283;49.292;10.572;2024-03-08T12:15:15;95834.75;;;9.82;57.12
65614;BME280;52283;49.292;10.572;2024-03-08T12:17:43;95823.81;;;10.42;57.16
65614;BME280;52283;49.292;10.572;2024-03-08T12:20:15;95827.44;;;10.25;56.44
65614;BME280;52283;49.292;10.572;2024-03-08T12:22:42;95817.25;;;11.29;54.72
65614;BME280;52283;49.292;10.572;2024-03-08T12:25:08;95809.56;;;10.39;55.77
65614;BME280;52283;49.292;10.572;2024-03-08T12:27:37;95813.34;;;9.95;56.45
65614;BME280;52283;49.292;10.572;2024-03-08T12:30:18;95810.91;;;10.68;55.33
65614;BME280;52283;49.292;10.572;2024-03-08T12:32:48;95813.13;;;10.76;55.89
65614;BME280;52283;49.292;10.572;2024-03-08T12:35:14;95804.81;;;10.29;54.38
65614;BME280;52283;49.292;10.572;2024-03-08T12:37:41;95803.06;;;10.61;54.46
65614;BME280;52283;49.292;10.572;2024-03-08T12:40:09;95801.97;;;11.06;54.04
65614;BME280;52283;49.292;10.572;2024-03-08T12:42:39;95789.97;;;11.35;54.89
65614;BME280;52283;49.292;10.572;2024-03-08T12:45:06;95796.78;;;10.55;56.19
65614;BME280;52283;49.292;10.572;2024-03-08T12:47:36;95790.50;;;10.02;55.48
65614;BME280;52283;49.292;10.572;2024-03-08T12:50:03;95786.19;;;11.33;53.51
65614;BME280;52283;49.292;10.572;2024-03-08T12:52:30;95784.06;;;10.90;53.78
65614;BME280;52283;49.292;10.572;2024-03-08T12:54:56;95783.56;;;10.56;55.36